createdAt,value
2023-05-07T00:32:31.522Z,95.72
2023-05-07T00:34:59.763Z,95.83
2023-05-07T00:37:28.048Z,95.99
2023-05-07T00:39:56.711Z,95.95
2023-05-07T00:42:25.399Z,96.13
2023-05-07T00:44:53.479Z,95.98
2023-05-07T00:47:21.648Z,95.82
2023-05-07T00:49:49.914Z,95.63
2023-05-07T00:52:19.214Z,95.59
2023-05-07T00:54:47.396Z,95.64
2023-05-07T00:57:16.394Z,95.10
2023-05-07T00:59:44.589Z,95.16
2023-05-07T01:02:12.922Z,94.94
2023-05-07T01:04:41.685Z,94.94
2023-05-07T01:07:10.964Z,95.02
2023-05-07T01:09:39.495Z,94.80
2023-05-07T01:12:08.791Z,94.87
2023-05-07T01:14:37.271Z,94.84
2023-05-07T01:17:05.586Z,95.04
2023-05-07T01:19:33.925Z,95.01
2023-05-07T01:22:09.682Z,95.11
2023-05-07T01:24:46.652Z,95.09
2023-05-07T01:27:15.445Z,94.82
2023-05-07T01:29:43.827Z,94.77
2023-05-07T01:32:13.320Z,95.47
2023-05-07T01:34:42.105Z,95.00
2023-05-07T01:37:10.274Z,95.10
2023-05-07T01:39:41.112Z,95.14
2023-05-07T01:42:09.226Z,95.03
2023-05-07T01:44:37.865Z,94.76
2023-05-07T01:47:07.127Z,94.62
2023-05-07T01:49:36.050Z,94.90
2023-05-07T01:52:04.841Z,94.66
2023-05-07T01:54:33.009Z,94.68
2023-05-07T01:57:01.294Z,94.33
2023-05-07T01:59:29.558Z,94.47
2023-05-07T02:01:57.862Z,94.45
2023-05-07T02:04:26.311Z,94.77
2023-05-07T02:06:55.431Z,94.88
2023-05-07T02:09:24.811Z,94.67
2023-05-07T02:11:53.495Z,94.68
2023-05-07T02:14:23.626Z,94.43
2023-05-07T02:16:51.847Z,94.48
2023-05-07T02:19:22.318Z,94.64
2023-05-07T02:21:50.993Z,94.30
2023-05-07T02:24:19.182Z,94.40
2023-05-07T02:26:47.546Z,94.14
2023-05-07T02:29:15.822Z,94.08
2023-05-07T02:31:44.367Z,93.95
2023-05-07T02:34:13.292Z,94.27
2023-05-07T02:36:41.672Z,94.04
2023-05-07T02:39:14.037Z,94.04
2023-05-07T02:41:42.623Z,94.35
2023-05-07T02:44:10.905Z,94.37
2023-05-07T02:46:39.589Z,94.45
2023-05-07T02:49:10.317Z,94.70
2023-05-07T02:51:38.600Z,94.40
2023-05-07T02:54:10.038Z,94.47
2023-05-07T02:56:38.209Z,94.43
2023-05-07T02:59:06.489Z,94.48
2023-05-07T03:01:38.106Z,94.71
2023-05-07T03:04:08.827Z,94.19
2023-05-07T03:06:37.042Z,94.59
2023-05-07T03:09:05.113Z,94.30
2023-05-07T03:11:33.576Z,94.42
2023-05-07T03:14:01.971Z,94.12
2023-05-07T03:16:30.370Z,94.49
2023-05-07T03:18:58.679Z,94.23
2023-05-07T03:21:27.595Z,94.13
2023-05-07T03:23:55.997Z,94.03
2023-05-07T03:26:24.157Z,94.08
2023-05-07T03:28:52.742Z,93.95
2023-05-07T03:31:21.058Z,94.30
2023-05-07T03:33:57.301Z,94.24
2023-05-07T03:36:27.929Z,94.17
2023-05-07T03:38:56.588Z,94.35
2023-05-07T03:41:27.319Z,94.16
2023-05-07T03:43:56.725Z,94.07
2023-05-07T03:46:27.460Z,94.38
2023-05-07T03:48:56.444Z,94.22
2023-05-07T03:51:24.638Z,94.26
2023-05-07T03:53:58.317Z,94.25
2023-05-07T03:56:28.989Z,94.37
2023-05-07T03:58:58.366Z,94.23
2023-05-07T04:01:27.037Z,94.26
2023-05-07T04:03:57.122Z,94.34
2023-05-07T04:06:26.564Z,94.07
2023-05-07T04:08:55.036Z,94.12
2023-05-07T04:11:23.521Z,94.23
2023-05-07T04:13:51.697Z,94.26
2023-05-07T04:16:22.134Z,94.14
2023-05-07T04:18:50.699Z,94.51
2023-05-07T04:21:20.926Z,94.27
2023-05-07T04:23:49.808Z,93.99
2023-05-07T04:26:17.978Z,93.95
2023-05-07T04:28:47.086Z,94.03
2023-05-07T04:31:17.031Z,94.09
2023-05-07T04:33:46.075Z,93.99
2023-05-07T04:36:15.489Z,93.97
2023-05-07T04:38:51.530Z,94.17
2023-05-07T04:41:20.633Z,93.91
2023-05-07T04:43:48.806Z,93.78
2023-05-07T04:46:17.541Z,93.82
2023-05-07T04:48:46.483Z,93.76
2023-05-07T04:51:14.545Z,93.77
2023-05-07T04:53:44.307Z,93.48
2023-05-07T04:56:12.947Z,93.76
2023-05-07T04:58:43.480Z,93.90
2023-05-07T05:01:11.875Z,93.84
2023-05-07T05:03:40.762Z,93.78
2023-05-07T05:06:09.618Z,93.45
2023-05-07T05:08:38.612Z,93.62
2023-05-07T05:11:07.197Z,93.60
2023-05-07T05:13:36.903Z,93.46
2023-05-07T05:16:11.701Z,93.26
2023-05-07T05:18:40.316Z,93.35
2023-05-07T05:21:09.920Z,93.18
2023-05-07T05:23:38.097Z,93.23
2023-05-07T05:26:06.475Z,93.08
2023-05-07T05:28:35.155Z,93.01
2023-05-07T05:31:04.415Z,92.86
2023-05-07T05:33:34.673Z,92.73
2023-05-07T05:36:06.323Z,92.55
2023-05-07T05:38:35.014Z,92.68
2023-05-07T05:41:03.523Z,92.45
2023-05-07T05:43:31.875Z,92.44
2023-05-07T05:46:00.481Z,92.32
2023-05-07T05:48:30.784Z,91.96
2023-05-07T05:50:59.777Z,92.06
2023-05-07T05:53:27.939Z,92.08
2023-05-07T05:55:56.319Z,92.17
2023-05-07T05:58:24.511Z,91.72
2023-05-07T06:00:57.779Z,91.82
2023-05-07T06:03:27.329Z,92.06
2023-05-07T06:05:56.888Z,92.01
2023-05-07T06:08:25.470Z,91.77
2023-05-07T06:10:53.641Z,91.32
2023-05-07T06:13:22.496Z,91.23
2023-05-07T06:15:52.547Z,91.21
2023-05-07T06:18:20.821Z,91.34
2023-05-07T06:20:49.194Z,91.81
2023-05-07T06:23:24.745Z,91.55
2023-05-07T06:25:53.120Z,91.05
2023-05-07T06:28:24.366Z,90.94
2023-05-07T06:30:53.786Z,90.78
2023-05-07T06:33:22.040Z,90.61
2023-05-07T06:35:50.116Z,90.53
2023-05-07T06:38:18.609Z,90.29
2023-05-07T06:40:50.774Z,90.22
2023-05-07T06:43:19.133Z,90.38
2023-05-07T06:45:56.580Z,90.40
2023-05-07T06:48:24.901Z,90.65
2023-05-07T06:51:01.888Z,90.74
2023-05-07T06:53:31.898Z,90.90
2023-05-07T06:56:01.305Z,90.64
2023-05-07T06:58:29.469Z,90.49
2023-05-07T07:00:57.593Z,90.30
2023-05-07T07:03:26.119Z,90.29
2023-05-07T07:05:57.058Z,90.08
2023-05-07T07:08:25.942Z,89.98
2023-05-07T07:10:54.454Z,89.73
2023-05-07T07:13:22.714Z,89.59
2023-05-07T07:15:51.203Z,89.44
2023-05-07T07:18:19.757Z,89.48
2023-05-07T07:20:49.361Z,89.48
2023-05-07T07:23:17.548Z,89.72
2023-05-07T07:25:45.922Z,89.47
2023-05-07T07:28:14.376Z,89.50
2023-05-07T07:30:42.664Z,89.25
2023-05-07T07:33:12.217Z,89.44
2023-05-07T07:35:40.749Z,89.28
2023-05-07T07:38:09.437Z,89.14
2023-05-07T07:40:37.620Z,88.92
2023-05-07T07:43:07.335Z,88.66
2023-05-07T07:45:36.012Z,88.58
2023-05-07T07:48:04.423Z,88.39
2023-05-07T07:50:44.343Z,88.09
2023-05-07T07:53:15.781Z,88.09
2023-05-07T07:55:44.158Z,88.08
2023-05-07T07:58:14.586Z,88.26
2023-05-07T08:00:43.066Z,88.33
2023-05-07T08:03:12.643Z,88.00
2023-05-07T08:05:44.515Z,87.80
2023-05-07T08:08:12.710Z,87.69
2023-05-07T08:10:41.592Z,87.57
2023-05-07T08:13:15.692Z,87.63
2023-05-07T08:15:44.496Z,87.60
2023-05-07T08:18:12.946Z,87.12
2023-05-07T08:20:42.595Z,86.78
2023-05-07T08:23:13.437Z,86.72
2023-05-07T08:25:43.727Z,86.84
2023-05-07T08:28:12.926Z,86.30
2023-05-07T08:30:41.963Z,86.44
2023-05-07T08:33:11.078Z,86.61
2023-05-07T08:35:40.031Z,86.45
2023-05-07T08:38:08.787Z,86.46
2023-05-07T08:40:39.433Z,86.61
2023-05-07T08:43:13.712Z,86.14
2023-05-07T08:45:42.725Z,85.83
2023-05-07T08:48:18.834Z,86.00
2023-05-07T08:50:54.536Z,85.78
2023-05-07T08:53:23.210Z,85.57
2023-05-07T08:55:52.619Z,85.21
2023-05-07T08:58:21.515Z,84.94
2023-05-07T09:00:49.897Z,84.99
2023-05-07T09:03:18.689Z,85.33
2023-05-07T09:05:50.119Z,85.04
2023-05-07T09:08:19.024Z,84.90
2023-05-07T09:10:49.434Z,84.60
2023-05-07T09:13:19.490Z,84.84
2023-05-07T09:15:48.400Z,84.86
2023-05-07T09:18:16.978Z,84.55
2023-05-07T09:20:46.115Z,84.29
2023-05-07T09:23:15.312Z,83.92
2023-05-07T09:25:44.708Z,83.75
2023-05-07T09:28:20.667Z,83.84
2023-05-07T09:30:48.938Z,83.76
2023-05-07T09:33:18.345Z,84.23
2023-05-07T09:35:53.066Z,84.14
2023-05-07T09:38:22.468Z,83.00
2023-05-07T09:41:09.484Z,82.24
2023-05-07T09:43:55.575Z,82.33
2023-05-07T09:46:32.581Z,82.03
2023-05-07T09:49:03.696Z,81.74
2023-05-07T09:51:49.073Z,81.11
2023-05-07T09:54:18.266Z,80.70
2023-05-07T09:56:49.518Z,80.60
2023-05-07T09:59:18.608Z,80.28
2023-05-07T10:01:47.187Z,80.14
2023-05-07T10:04:16.286Z,80.13
2023-05-07T10:06:46.192Z,79.88
2023-05-07T10:09:15.196Z,80.05
2023-05-07T10:11:44.265Z,79.39
2023-05-07T10:14:12.762Z,79.41
2023-05-07T10:16:42.898Z,79.29
2023-05-07T10:19:14.328Z,78.93
2023-05-07T10:21:56.598Z,78.67
2023-05-07T10:24:31.046Z,78.56
2023-05-07T10:27:00.044Z,78.25
2023-05-07T10:29:28.108Z,78.52
2023-05-07T10:31:58.231Z,78.53
2023-05-07T10:34:31.521Z,78.34
2023-05-07T10:37:00.000Z,78.16
2023-05-07T10:39:28.690Z,78.19
2023-05-07T10:41:57.262Z,78.53
2023-05-07T10:44:30.152Z,78.43
2023-05-07T10:47:15.329Z,78.39
2023-05-07T10:49:45.746Z,78.33
2023-05-07T10:52:27.947Z,78.08
2023-05-07T10:55:18.875Z,77.85
2023-05-07T10:58:31.399Z,77.85
2023-05-07T11:01:53.085Z,77.68
2023-05-07T11:04:28.577Z,77.15
2023-05-07T11:07:31.120Z,77.36
2023-05-07T11:10:05.609Z,76.92
2023-05-07T11:12:56.448Z,76.80
2023-05-07T11:15:36.469Z,76.83
2023-05-07T11:18:06.245Z,76.60
2023-05-07T11:20:47.884Z,76.71
2023-05-07T11:23:38.989Z,76.61
2023-05-07T11:26:20.110Z,76.60
2023-05-07T11:28:48.855Z,76.55
2023-05-07T11:31:22.509Z,76.67
2023-05-07T11:33:51.236Z,76.89
2023-05-07T11:36:22.991Z,76.64
2023-05-07T11:38:52.905Z,76.22
2023-05-07T11:41:21.794Z,75.84
2023-05-07T11:43:57.443Z,75.44
2023-05-07T11:46:26.148Z,75.16
2023-05-07T11:48:54.723Z,75.47
2023-05-07T11:51:25.059Z,75.19
2023-05-07T11:53:53.305Z,75.42
2023-05-07T11:56:21.899Z,75.68
2023-05-07T11:58:50.804Z,75.64
2023-05-07T12:01:19.679Z,75.69
2023-05-07T12:03:47.906Z,75.43
2023-05-07T12:06:17.773Z,75.22
2023-05-07T12:08:48.189Z,75.05
2023-05-07T12:11:23.290Z,74.92
2023-05-07T12:13:51.791Z,74.64
2023-05-07T12:16:20.796Z,74.43
2023-05-07T12:18:49.063Z,73.58
2023-05-07T12:21:18.475Z,72.98
2023-05-07T12:23:46.734Z,72.95
2023-05-07T12:26:15.009Z,72.63
2023-05-07T12:28:43.703Z,72.53
2023-05-07T12:31:11.989Z,72.32
2023-05-07T12:33:41.266Z,72.14
2023-05-07T12:36:10.069Z,71.67
2023-05-07T12:38:44.281Z,71.40
2023-05-07T12:41:13.830Z,71.06
2023-05-07T12:43:45.917Z,70.81
2023-05-07T12:46:19.728Z,70.71
2023-05-07T12:48:47.943Z,71.02
2023-05-07T12:51:17.237Z,71.20
2023-05-07T12:53:45.390Z,71.21
2023-05-07T12:56:16.943Z,71.58
2023-05-07T12:58:45.007Z,71.61
2023-05-07T13:01:16.849Z,71.72
2023-05-07T13:03:50.166Z,71.06
2023-05-07T13:06:18.559Z,70.72
2023-05-07T13:08:46.711Z,70.68
2023-05-07T13:11:14.889Z,70.23
2023-05-07T13:13:43.070Z,70.00
2023-05-07T13:16:12.866Z,69.78
2023-05-07T13:18:42.238Z,69.80
2023-05-07T13:21:11.451Z,69.64
2023-05-07T13:23:39.874Z,69.63
2023-05-07T13:26:24.877Z,69.45
2023-05-07T13:28:57.490Z,69.55
2023-05-07T13:31:26.536Z,69.42
2023-05-07T13:33:55.080Z,69.53
2023-05-07T13:36:23.227Z,69.23
2023-05-07T13:38:52.850Z,69.11
2023-05-07T13:41:21.575Z,69.25
2023-05-07T13:43:49.790Z,69.90
2023-05-07T13:46:18.756Z,69.98
2023-05-07T13:48:47.178Z,70.05
2023-05-07T13:51:15.235Z,69.75
2023-05-07T13:53:43.604Z,70.17
2023-05-07T13:56:12.083Z,69.94
2023-05-07T13:58:52.074Z,69.57
2023-05-07T14:01:28.416Z,69.45
2023-05-07T14:03:59.126Z,69.66
2023-05-07T14:06:27.623Z,69.42
2023-05-07T14:08:55.929Z,69.60
2023-05-07T14:11:24.381Z,69.78
2023-05-07T14:13:52.746Z,69.95
2023-05-07T14:16:20.955Z,70.00
2023-05-07T14:18:49.186Z,69.53
2023-05-07T14:21:17.256Z,69.78
2023-05-07T14:23:45.430Z,69.63
2023-05-07T14:26:13.619Z,69.82
2023-05-07T14:28:47.389Z,70.01
2023-05-07T14:31:15.842Z,70.12
2023-05-07T14:33:44.267Z,69.89
2023-05-07T14:36:12.545Z,69.94
2023-05-07T14:38:40.908Z,70.31
2023-05-07T14:41:09.086Z,69.64
2023-05-07T14:43:37.356Z,69.26
2023-05-07T14:46:05.562Z,69.29
2023-05-07T14:48:33.917Z,69.39
2023-05-07T14:51:02.500Z,69.09
2023-05-07T14:53:30.668Z,68.99
2023-05-07T14:55:58.938Z,68.85
2023-05-07T14:58:27.091Z,68.94
2023-05-07T15:00:55.493Z,68.83
2023-05-07T15:03:24.399Z,68.85
2023-05-07T15:05:52.872Z,69.13
2023-05-07T15:08:21.250Z,69.32
2023-05-07T15:10:49.514Z,69.18
2023-05-07T15:13:17.723Z,69.31
2023-05-07T15:15:46.570Z,69.37
2023-05-07T15:18:15.686Z,69.22
2023-05-07T15:20:44.237Z,69.13
2023-05-07T15:23:14.058Z,69.06
2023-05-07T15:25:43.360Z,68.99
2023-05-07T15:28:11.840Z,68.89
2023-05-07T15:30:39.915Z,68.78
2023-05-07T15:33:08.213Z,68.61
2023-05-07T15:35:36.454Z,68.60
2023-05-07T15:38:04.831Z,68.58
2023-05-07T15:40:34.001Z,68.66
2023-05-07T15:43:02.112Z,68.34
2023-05-07T15:45:30.648Z,68.41
2023-05-07T15:47:59.446Z,68.50
2023-05-07T15:50:27.945Z,68.49
2023-05-07T15:52:56.732Z,68.80
2023-05-07T15:55:25.519Z,68.88
2023-05-07T15:57:55.254Z,68.93
2023-05-07T16:00:23.509Z,68.67
2023-05-07T16:02:51.960Z,68.66
2023-05-07T16:05:20.472Z,68.16
2023-05-07T16:07:48.838Z,68.05
2023-05-07T16:10:17.022Z,68.14
2023-05-07T16:12:45.225Z,68.33
2023-05-07T16:15:13.844Z,68.30
2023-05-07T16:17:42.693Z,68.16
2023-05-07T16:20:13.271Z,68.35
2023-05-07T16:22:41.561Z,67.99
2023-05-07T16:25:10.173Z,68.03
2023-05-07T16:27:38.422Z,68.33
2023-05-07T16:30:07.667Z,68.51
2023-05-07T16:32:36.454Z,68.44
2023-05-07T16:35:06.112Z,68.80
2023-05-07T16:37:34.592Z,68.98
2023-05-07T16:40:07.470Z,68.96
2023-05-07T16:42:36.564Z,68.90
2023-05-07T16:45:05.174Z,68.94
2023-05-07T16:47:33.467Z,69.07
2023-05-07T16:50:01.709Z,69.11
2023-05-07T16:52:30.293Z,69.23
2023-05-07T16:55:01.661Z,69.47
2023-05-07T16:57:30.677Z,69.33
2023-05-07T17:00:00.443Z,69.62
2023-05-07T17:02:29.078Z,69.55
2023-05-07T17:04:57.589Z,69.47
2023-05-07T17:07:27.369Z,69.62
2023-05-07T17:09:55.579Z,69.68
2023-05-07T17:12:23.857Z,69.76
2023-05-07T17:14:52.127Z,70.32
2023-05-07T17:17:20.299Z,70.20
2023-05-07T17:19:48.465Z,70.28
2023-05-07T17:22:16.746Z,70.35
2023-05-07T17:24:44.916Z,70.10
2023-05-07T17:27:13.096Z,69.99
2023-05-07T17:29:41.258Z,70.15
2023-05-07T17:32:09.669Z,70.20
2023-05-07T17:34:38.219Z,70.25
2023-05-07T17:37:06.282Z,70.14
2023-05-07T17:39:34.560Z,70.30
2023-05-07T17:42:02.735Z,70.43
2023-05-07T17:44:30.903Z,70.53
2023-05-07T17:46:59.077Z,70.60
2023-05-07T17:49:27.357Z,70.62
2023-05-07T17:51:55.953Z,70.58
2023-05-07T17:54:26.322Z,70.73
2023-05-07T17:56:54.530Z,70.75
2023-05-07T17:59:22.812Z,70.85
2023-05-07T18:01:51.044Z,71.08
2023-05-07T18:04:21.856Z,71.32
2023-05-07T18:06:50.184Z,71.04
2023-05-07T18:09:18.266Z,71.05
2023-05-07T18:11:46.428Z,71.11
2023-05-07T18:14:14.709Z,71.21
2023-05-07T18:16:43.028Z,71.45
2023-05-07T18:19:12.293Z,71.50
2023-05-07T18:21:40.452Z,71.72
2023-05-07T18:24:09.236Z,71.73
2023-05-07T18:26:37.304Z,72.01
2023-05-07T18:29:05.682Z,72.04
2023-05-07T18:31:35.945Z,72.20
2023-05-07T18:34:06.681Z,72.53
2023-05-07T18:36:34.911Z,72.77
2023-05-07T18:39:04.008Z,72.80
2023-05-07T18:41:32.174Z,72.56
2023-05-07T18:44:00.348Z,72.94
2023-05-07T18:46:29.695Z,73.08
2023-05-07T18:48:57.923Z,73.20
2023-05-07T18:51:27.431Z,73.47
2023-05-07T18:53:55.704Z,73.55
2023-05-07T18:56:23.881Z,73.60
2023-05-07T18:58:52.147Z,73.94
2023-05-07T19:01:20.339Z,73.92
2023-05-07T19:03:48.490Z,73.90
2023-05-07T19:06:16.771Z,74.38
2023-05-07T19:08:44.942Z,74.29
2023-05-07T19:11:13.019Z,74.56
2023-05-07T19:13:41.297Z,74.48
2023-05-07T19:16:12.577Z,74.32
2023-05-07T19:18:41.738Z,74.75
2023-05-07T19:21:10.205Z,74.74
2023-05-07T19:23:41.980Z,74.85
2023-05-07T19:26:10.866Z,74.78
2023-05-07T19:28:45.031Z,74.83
2023-05-07T19:31:24.320Z,75.38
2023-05-07T19:33:52.570Z,75.66
2023-05-07T19:36:20.844Z,75.41
2023-05-07T19:38:50.143Z,75.52
2023-05-07T19:41:18.214Z,75.92
2023-05-07T19:43:46.385Z,76.10
2023-05-07T19:46:16.724Z,76.02
2023-05-07T19:48:45.846Z,76.55
2023-05-07T19:51:14.049Z,76.85
2023-05-07T19:53:42.352Z,77.04
2023-05-07T19:56:11.557Z,77.21
2023-05-07T19:58:40.041Z,77.15
2023-05-07T20:01:08.259Z,77.23
2023-05-07T20:03:36.596Z,77.48
2023-05-07T20:06:05.673Z,77.50
2023-05-07T20:08:33.869Z,77.49
2023-05-07T20:11:02.167Z,77.75
2023-05-07T20:13:30.723Z,77.94
2023-05-07T20:16:02.809Z,78.38
2023-05-07T20:18:30.937Z,78.37
2023-05-07T20:20:59.325Z,78.51
2023-05-07T20:23:27.487Z,78.82
2023-05-07T20:25:55.666Z,79.02
2023-05-07T20:28:24.245Z,79.03
2023-05-07T20:30:52.456Z,79.15
2023-05-07T20:33:21.614Z,79.18
2023-05-07T20:35:49.693Z,79.39
2023-05-07T20:38:18.002Z,79.34
2023-05-07T20:40:46.126Z,79.46
2023-05-07T20:43:14.300Z,79.49
2023-05-07T20:45:42.816Z,79.75
2023-05-07T20:48:11.047Z,79.85
2023-05-07T20:50:39.230Z,80.00
2023-05-07T20:53:07.299Z,80.23
2023-05-07T20:55:35.469Z,80.26
2023-05-07T20:58:03.545Z,80.49
2023-05-07T21:00:31.718Z,80.69
2023-05-07T21:02:59.909Z,80.78
2023-05-07T21:05:28.168Z,80.99
2023-05-07T21:07:56.743Z,80.98
2023-05-07T21:10:25.329Z,81.06
2023-05-07T21:12:53.520Z,81.33
2023-05-07T21:15:21.663Z,81.43
2023-05-07T21:17:49.883Z,81.81
2023-05-07T21:20:18.121Z,81.90
2023-05-07T21:22:46.283Z,82.10
2023-05-07T21:25:14.454Z,82.04
2023-05-07T21:27:42.731Z,81.92
2023-05-07T21:30:11.771Z,82.18
2023-05-07T21:32:40.012Z,82.20
2023-05-07T21:35:08.676Z,82.04
2023-05-07T21:37:37.056Z,81.92
2023-05-07T21:40:06.122Z,82.01
2023-05-07T21:42:34.421Z,82.25
2023-05-07T21:45:05.636Z,82.07
2023-05-07T21:47:33.694Z,81.98
2023-05-07T21:50:01.817Z,82.08
2023-05-07T21:52:29.982Z,82.03
2023-05-07T21:54:58.151Z,82.03
2023-05-07T21:57:26.425Z,82.04
2023-05-07T21:59:54.496Z,82.17
2023-05-07T22:02:22.871Z,82.21
2023-05-07T22:04:51.352Z,82.24
2023-05-07T22:07:19.522Z,82.40
2023-05-07T22:09:47.695Z,82.29
2023-05-07T22:12:15.971Z,82.48
2023-05-07T22:14:44.372Z,82.53
2023-05-07T22:17:12.525Z,82.42
2023-05-07T22:19:41.002Z,82.50
2023-05-07T22:22:09.180Z,82.47
2023-05-07T22:24:37.448Z,82.64
2023-05-07T22:27:05.722Z,82.82
2023-05-07T22:29:33.795Z,82.84
2023-05-07T22:32:02.054Z,82.87
2023-05-07T22:34:30.444Z,82.88
2023-05-07T22:36:58.618Z,83.07
2023-05-07T22:39:26.790Z,83.15
2023-05-07T22:41:55.062Z,83.24
2023-05-07T22:44:23.232Z,83.37
2023-05-07T22:46:51.509Z,83.43
2023-05-07T22:49:19.688Z,83.48
2023-05-07T22:51:47.756Z,83.49
2023-05-07T22:54:15.925Z,83.51
2023-05-07T22:56:44.207Z,83.67
2023-05-07T22:59:13.495Z,83.78
2023-05-07T23:01:41.914Z,83.75
2023-05-07T23:04:10.252Z,83.68
2023-05-07T23:06:38.325Z,83.89
2023-05-07T23:09:06.698Z,84.00
2023-05-07T23:11:35.177Z,84.11
2023-05-07T23:14:03.353Z,84.06
2023-05-07T23:16:31.671Z,84.26
2023-05-07T23:18:59.901Z,84.11
2023-05-07T23:21:28.072Z,83.96
2023-05-07T23:23:56.970Z,84.18
2023-05-07T23:26:31.288Z,84.11
2023-05-07T23:28:59.451Z,84.03
2023-05-07T23:31:27.634Z,84.29
2023-05-07T23:33:56.004Z,84.51
2023-05-07T23:36:24.068Z,84.31
2023-05-07T23:38:52.140Z,84.53
2023-05-07T23:41:20.210Z,84.34
2023-05-07T23:43:48.383Z,84.58
2023-05-07T23:46:16.592Z,84.45
2023-05-07T23:48:44.722Z,84.65
2023-05-07T23:51:13.216Z,84.74
2023-05-07T23:53:41.493Z,84.82
2023-05-07T23:56:09.656Z,84.94
2023-05-07T23:58:37.827Z,85.06
